KHWD/HWD METAR and TAF weather

Enter ICAO airport designator
Station Type Date Time Source
KHWD METAR 2023/02/05 23:54 UTC NOAA

KHWD 052354Z 29008KT 10SM SCT025 12/07 A3025 RMK AO2 PK WND 29027/2306 RAB12E21 SLP254 P0000 60001 T01170067 10139 20100 53004


Station Type Date Time Source
KHWD Decoded METAR 2023/02/05 23:54 UTC NOAA

HAYWARD AIR TERMINAL, CA, United States (KHWD) 37-40N 122-07W 21M
Feb 05, 2023 - 06:54 PM EST / 2023.02.05 2354 UTC
Wind: from the WNW (290 degrees) at 9 MPH (8 KT):0
Visibility: 10 mile(s):0
Sky conditions: partly cloudy
Precipitation last hour: A trace
Temperature: 53.1 F (11.7 C)
Dew Point: 44.1 F (6.7 C)
Relative Humidity: 71%
Pressure (altimeter): 30.25 in. Hg (1024 hPa)
Pressure tendency: 0.01 inches (0.4 hPa) higher than three hours ago
ob: KHWD 052354Z 29008KT 10SM SCT025 12/07 A3025 RMK AO2 PK WND 29027/2306 RAB12E21 SLP254 P0000 60001 T01170067 10139 20100 53004
cycle: 0

Station Type Date Time Source
KHWD TAF UTC NOAA

Error!

Example: see airport list